Terminal Aerodrome Forecast
Issued by NWS

Home | Current Version | Previous Version | Text Only | Print | Product List | Glossary On
Versions: 1 2 3 4 5 6 7 8 9 10 11 12 13
000
FTUS45 KLKN 171729
TAFWMC
TAF
KWMC 171729Z 1718/1818 29010G20KT P6SM VCSH SCT015 BKN070
      TEMPO 1718/1720 BKN015
     FM172200 32005KT P6SM SKC
     FM180200 10005KT P6SM VCFG SKC
     FM181700 09006KT P6SM FEW250=

USA.gov is the U.S. government's official web portal to all federal, state and local government web resources and services.